createdAt,value
2022-11-10T00:01:15.460Z,24.33
2022-11-10T00:04:01.459Z,25.50
2022-11-10T00:06:48.319Z,25.83
2022-11-10T00:09:35.016Z,23.25
2022-11-10T00:12:22.618Z,23.10
2022-11-10T00:15:28.972Z,22.85
2022-11-10T00:18:15.930Z,22.17
2022-11-10T00:21:09.616Z,22.52
2022-11-10T00:23:56.076Z,19.25
2022-11-10T00:26:42.305Z,21.52
2022-11-10T00:29:28.367Z,23.73
2022-11-10T00:32:14.709Z,24.67
2022-11-10T00:35:01.018Z,22.95
2022-11-10T00:37:49.556Z,23.30
2022-11-10T00:40:35.650Z,24.55
2022-11-10T00:43:26.315Z,23.23
2022-11-10T00:46:13.540Z,25.38
2022-11-10T00:48:59.707Z,27.48
2022-11-10T00:51:45.993Z,25.20
2022-11-10T00:54:32.299Z,25.33
2022-11-10T00:57:18.289Z,29.02
2022-11-10T01:00:08.869Z,30.15
2022-11-10T01:02:55.970Z,28.55
2022-11-10T01:05:43.254Z,31.13
2022-11-10T01:08:29.627Z,26.48
2022-11-10T01:11:19.711Z,29.17
2022-11-10T01:14:05.760Z,29.42
2022-11-10T01:16:52.291Z,26.65
2022-11-10T01:19:38.788Z,28.40
2022-11-10T01:22:25.173Z,26.50
2022-11-10T01:25:11.997Z,32.55
2022-11-10T01:27:58.091Z,34.08
2022-11-10T01:30:44.118Z,37.78
2022-11-10T01:33:30.543Z,42.28
2022-11-10T01:36:17.077Z,41.45
2022-11-10T01:39:03.242Z,44.22
2022-11-10T01:41:49.306Z,42.88
2022-11-10T01:44:36.310Z,44.05
2022-11-10T01:47:22.489Z,41.92
2022-11-10T01:50:08.834Z,46.38
2022-11-10T01:52:57.966Z,47.60
2022-11-10T01:55:47.009Z,40.78
2022-11-10T01:58:40.388Z,44.95
2022-11-10T02:01:27.114Z,50.65
2022-11-10T02:04:16.636Z,53.45
2022-11-10T02:07:05.088Z,53.10
2022-11-10T02:09:53.348Z,55.15
2022-11-10T02:12:39.710Z,55.25
2022-11-10T02:15:26.808Z,57.22
2022-11-10T02:18:13.176Z,55.22
2022-11-10T02:20:59.491Z,57.03
2022-11-10T02:23:49.773Z,58.38
2022-11-10T02:26:39.841Z,59.83
2022-11-10T02:29:26.355Z,58.97
2022-11-10T02:32:12.551Z,62.78
2022-11-10T02:34:58.507Z,60.70
2022-11-10T02:37:44.411Z,53.15
2022-11-10T02:40:30.492Z,56.05
2022-11-10T02:43:18.693Z,53.50
2022-11-10T02:46:05.535Z,54.47
2022-11-10T02:48:51.994Z,56.20
2022-11-10T02:51:37.980Z,45.97
2022-11-10T02:54:24.395Z,50.88
2022-11-10T02:57:11.141Z,49.65
2022-11-10T02:59:57.398Z,51.13
2022-11-10T03:02:43.658Z,55.42
2022-11-10T03:05:30.530Z,59.80
2022-11-10T03:08:16.666Z,46.85
2022-11-10T03:11:02.672Z,50.90
2022-11-10T03:14:01.030Z,41.88
2022-11-10T03:16:47.930Z,43.83
2022-11-10T03:19:34.225Z,40.00
2022-11-10T03:22:20.864Z,39.25
2022-11-10T03:25:08.026Z,34.13
2022-11-10T03:27:54.185Z,35.22
2022-11-10T03:30:40.577Z,36.63
2022-11-10T03:33:26.742Z,36.55
2022-11-10T03:36:13.912Z,40.47
2022-11-10T03:39:00.355Z,41.47
2022-11-10T03:41:46.547Z,42.90
2022-11-10T03:44:33.020Z,46.17
2022-11-10T03:47:19.167Z,43.25
2022-11-10T03:50:06.811Z,42.55
2022-11-10T03:52:53.116Z,41.03
2022-11-10T03:55:39.280Z,38.50
2022-11-10T03:58:25.677Z,40.88
2022-11-10T04:01:11.801Z,35.28
2022-11-10T04:03:58.167Z,35.90
2022-11-10T04:07:03.479Z,31.80
2022-11-10T04:09:49.693Z,32.90
2022-11-10T04:12:54.627Z,34.47
2022-11-10T04:15:43.671Z,35.08
2022-11-10T04:18:30.269Z,34.05
2022-11-10T04:21:16.556Z,37.40
2022-11-10T04:24:03.204Z,31.92
2022-11-10T04:26:49.433Z,38.22
2022-11-10T04:29:35.905Z,30.25
2022-11-10T04:32:22.161Z,33.78
2022-11-10T04:35:08.630Z,33.72
2022-11-10T04:37:54.803Z,31.58
2022-11-10T04:40:41.077Z,32.88
2022-11-10T04:43:30.373Z,32.38
2022-11-10T04:46:19.547Z,36.47
2022-11-10T04:49:06.940Z,34.38
2022-11-10T04:51:53.053Z,33.33
2022-11-10T04:54:39.312Z,32.58
2022-11-10T04:57:25.610Z,32.08
2022-11-10T05:00:12.539Z,33.00
2022-11-10T05:03:02.752Z,32.72
2022-11-10T05:05:49.462Z,34.78
2022-11-10T05:08:36.743Z,37.10
2022-11-10T05:11:23.082Z,33.45
2022-11-10T05:14:12.659Z,35.58
2022-11-10T05:16:58.893Z,34.35
2022-11-10T05:19:47.407Z,32.65
2022-11-10T05:22:33.909Z,32.10
2022-11-10T05:25:19.984Z,35.00
2022-11-10T05:28:07.993Z,32.28
2022-11-10T05:30:54.332Z,35.28
2022-11-10T05:33:41.569Z,38.78
2022-11-10T05:36:28.238Z,36.30
2022-11-10T05:39:14.434Z,35.55
2022-11-10T05:42:00.681Z,39.42
2022-11-10T05:44:49.471Z,35.80
2022-11-10T05:47:38.538Z,35.70
2022-11-10T05:50:25.568Z,36.60
2022-11-10T05:53:14.848Z,34.30
2022-11-10T05:56:01.120Z,35.75
2022-11-10T05:58:47.786Z,37.67
2022-11-10T06:01:38.775Z,34.58
2022-11-10T06:04:25.290Z,38.22
2022-11-10T06:07:12.120Z,42.30
2022-11-10T06:09:58.431Z,39.90
2022-11-10T06:12:46.465Z,41.08
2022-11-10T06:15:33.415Z,45.05
2022-11-10T06:18:19.509Z,44.58
2022-11-10T06:21:05.958Z,43.53
2022-11-10T06:23:52.414Z,48.38
2022-11-10T06:26:38.692Z,60.90
2022-11-10T06:29:26.946Z,48.63
2022-11-10T06:32:13.581Z,54.42
2022-11-10T06:35:00.863Z,48.03
2022-11-10T06:37:56.777Z,50.53
2022-11-10T06:40:43.107Z,49.75
2022-11-10T06:43:29.692Z,50.67
2022-11-10T06:46:16.388Z,42.85
2022-11-10T06:49:03.057Z,36.75
2022-11-10T06:51:49.525Z,37.97
2022-11-10T06:54:39.443Z,37.70
2022-11-10T06:57:25.707Z,31.50
2022-11-10T07:00:12.172Z,33.05
2022-11-10T07:03:10.587Z,32.35
2022-11-10T07:05:58.539Z,30.10
2022-11-10T07:08:45.591Z,27.95
2022-11-10T07:11:32.059Z,34.20
2022-11-10T07:14:18.438Z,35.60
2022-11-10T07:17:06.963Z,27.13
2022-11-10T07:19:53.004Z,32.53
2022-11-10T07:22:39.442Z,34.15
2022-11-10T07:25:26.201Z,33.55
2022-11-10T07:28:12.779Z,30.75
2022-11-10T07:31:03.064Z,31.73
2022-11-10T07:33:54.406Z,33.00
2022-11-10T07:36:40.850Z,30.90
2022-11-10T07:39:27.174Z,34.08
2022-11-10T07:42:13.386Z,37.65
2022-11-10T07:44:59.698Z,37.65
2022-11-10T07:47:46.302Z,41.10
2022-11-10T07:50:33.910Z,40.17
2022-11-10T07:53:21.329Z,39.47
2022-11-10T07:56:08.215Z,37.45
2022-11-10T07:58:54.444Z,34.63
2022-11-10T08:01:40.329Z,42.67
2022-11-10T08:04:26.649Z,39.45
2022-11-10T08:07:12.857Z,41.38
2022-11-10T08:09:59.182Z,37.15
2022-11-10T08:12:45.384Z,37.25
2022-11-10T08:15:34.356Z,30.73
2022-11-10T08:18:23.544Z,33.65
2022-11-10T08:21:09.801Z,31.70
2022-11-10T08:23:56.621Z,33.33
2022-11-10T08:26:42.986Z,31.60
2022-11-10T08:29:29.402Z,35.25
2022-11-10T08:32:15.536Z,29.92
2022-11-10T08:35:02.034Z,24.08
2022-11-10T08:37:48.458Z,22.40
2022-11-10T08:40:34.897Z,25.83
2022-11-10T08:43:21.356Z,22.27
2022-11-10T08:46:08.619Z,27.10
2022-11-10T08:48:54.922Z,25.98
2022-11-10T08:51:41.493Z,26.25
2022-11-10T08:54:27.822Z,32.38
2022-11-10T08:57:14.031Z,31.25
2022-11-10T09:00:00.040Z,26.88
2022-11-10T09:02:45.978Z,26.83
2022-11-10T09:05:32.921Z,26.55
2022-11-10T09:08:19.456Z,25.23
2022-11-10T09:11:06.029Z,24.33
2022-11-10T09:13:52.374Z,27.42
2022-11-10T09:16:38.796Z,25.00
2022-11-10T09:19:25.901Z,29.83
2022-11-10T09:22:12.093Z,25.05
2022-11-10T09:24:58.449Z,26.83
2022-11-10T09:27:44.548Z,28.33
2022-11-10T09:30:31.519Z,31.63
2022-11-10T09:33:17.733Z,33.03
2022-11-10T09:36:04.051Z,30.95
2022-11-10T09:38:50.183Z,31.38
2022-11-10T09:41:40.162Z,33.35
2022-11-10T09:44:36.163Z,31.92
2022-11-10T09:47:56.118Z,32.17
2022-11-10T09:50:47.049Z,35.38
2022-11-10T09:53:48.916Z,30.38
2022-11-10T09:56:37.056Z,32.47
2022-11-10T09:59:34.210Z,31.65
2022-11-10T10:02:28.423Z,33.70
2022-11-10T10:05:34.383Z,30.58
2022-11-10T10:08:54.005Z,28.40
2022-11-10T10:11:58.470Z,30.10
2022-11-10T10:14:57.065Z,29.35
2022-11-10T10:17:54.978Z,29.75
2022-11-10T10:20:53.206Z,31.67
2022-11-10T10:27:00.776Z,29.33
2022-11-10T10:29:49.399Z,28.65
2022-11-10T10:32:35.651Z,32.15
2022-11-10T10:35:22.611Z,29.63
2022-11-10T10:38:29.652Z,34.42
2022-11-10T10:41:25.410Z,33.03
2022-11-10T10:44:17.611Z,32.85
2022-11-10T10:47:04.626Z,36.47
2022-11-10T10:49:50.854Z,37.88
2022-11-10T10:52:37.231Z,38.35
2022-11-10T10:55:29.528Z,32.45
2022-11-10T10:58:28.274Z,32.95
2022-11-10T11:01:14.473Z,33.65
2022-11-10T11:04:06.353Z,35.63
2022-11-10T11:07:20.313Z,34.88
2022-11-10T11:10:22.767Z,36.22
2022-11-10T11:13:14.790Z,35.72
2022-11-10T11:16:07.928Z,36.08
2022-11-10T11:18:54.439Z,36.25
2022-11-10T11:22:24.189Z,35.25
2022-11-10T11:25:32.506Z,38.92
2022-11-10T11:28:41.317Z,33.45
2022-11-10T11:32:12.415Z,36.90
2022-11-10T11:35:19.649Z,30.80
2022-11-10T11:38:13.801Z,37.28
2022-11-10T11:44:21.153Z,34.85
2022-11-10T11:47:13.436Z,36.60
2022-11-10T11:50:28.001Z,36.17
2022-11-10T11:53:23.179Z,39.38
2022-11-10T11:56:22.147Z,36.30
2022-11-10T11:59:40.502Z,38.40
2022-11-10T12:03:05.554Z,36.10
2022-11-10T12:09:02.434Z,38.55
2022-11-10T12:11:58.152Z,39.50
2022-11-10T12:14:56.290Z,41.17
2022-11-10T12:17:48.655Z,43.78
2022-11-10T12:21:03.376Z,41.08
2022-11-10T12:23:55.511Z,41.35
2022-11-10T12:26:59.778Z,41.53
2022-11-10T12:29:55.174Z,44.38
2022-11-10T12:32:53.134Z,46.78
2022-11-10T12:35:43.223Z,39.17
2022-11-10T12:38:42.953Z,41.35
2022-11-10T12:41:37.284Z,44.10
2022-11-10T12:44:32.129Z,38.03
2022-11-10T12:47:23.004Z,41.35
2022-11-10T12:50:38.625Z,37.63
2022-11-10T12:53:29.754Z,39.65
2022-11-10T12:56:22.379Z,40.17
2022-11-10T12:59:20.062Z,40.33
2022-11-10T13:02:34.465Z,41.45
2022-11-10T13:05:31.924Z,37.53
2022-11-10T13:08:42.350Z,39.15
2022-11-10T13:11:31.766Z,37.05
2022-11-10T13:14:28.237Z,41.67
2022-11-10T13:17:26.435Z,36.85
2022-11-10T13:20:41.955Z,40.83
2022-11-10T13:23:33.745Z,37.95
2022-11-10T13:26:45.001Z,33.13
2022-11-10T13:29:44.074Z,34.80
2022-11-10T13:32:33.929Z,38.88
2022-11-10T13:35:29.037Z,37.13
2022-11-10T13:38:33.233Z,34.53
2022-11-10T13:41:25.344Z,36.35
2022-11-10T13:44:25.536Z,41.10
2022-11-10T13:47:11.662Z,38.08
2022-11-10T13:49:57.776Z,43.42
2022-11-10T13:53:17.471Z,37.72
2022-11-10T13:56:18.689Z,37.63
2022-11-10T13:59:21.333Z,36.65
2022-11-10T14:02:45.314Z,41.35
2022-11-10T14:05:32.808Z,40.55
2022-11-10T14:08:24.141Z,39.65
2022-11-10T14:11:39.059Z,39.65
2022-11-10T14:14:39.600Z,35.60
2022-11-10T14:17:34.047Z,41.13
2022-11-10T14:20:22.714Z,36.90
2022-11-10T14:23:21.452Z,43.67
2022-11-10T14:26:33.771Z,41.17
2022-11-10T14:29:40.171Z,39.00
2022-11-10T14:32:26.668Z,42.67
2022-11-10T14:35:25.984Z,42.35
2022-11-10T14:38:20.918Z,41.92
2022-11-10T14:41:16.702Z,42.55
2022-11-10T14:44:08.064Z,40.67
2022-11-10T14:46:54.970Z,46.28
2022-11-10T14:49:41.527Z,42.55
2022-11-10T14:52:27.537Z,44.15
2022-11-10T14:55:22.008Z,44.85
2022-11-10T15:00:56.636Z,55.45
2022-11-10T15:03:43.397Z,49.40
2022-11-10T15:06:30.764Z,47.20
2022-11-10T15:09:24.384Z,45.00
2022-11-10T15:12:15.985Z,47.53
2022-11-10T15:15:02.049Z,47.80
2022-11-10T15:17:52.174Z,48.42
2022-11-10T15:20:40.727Z,50.70
2022-11-10T15:23:33.616Z,57.35
2022-11-10T15:26:26.646Z,49.13
2022-11-10T15:29:21.789Z,49.40
2022-11-10T15:32:21.238Z,45.22
2022-11-10T15:35:31.610Z,44.25
2022-11-10T15:38:21.430Z,44.83
2022-11-10T15:41:12.333Z,39.05
2022-11-10T15:44:28.225Z,47.92
2022-11-10T15:47:16.665Z,53.97
2022-11-10T15:50:02.976Z,50.35
2022-11-10T15:52:49.269Z,51.08
2022-11-10T15:55:35.566Z,48.43
2022-11-10T15:58:23.662Z,49.25
2022-11-10T16:01:12.520Z,48.10
2022-11-10T16:03:58.858Z,50.80
2022-11-10T16:06:46.677Z,54.97
2022-11-10T16:09:32.999Z,56.55
2022-11-10T16:12:22.171Z,51.58
2022-11-10T16:15:18.007Z,49.72
2022-11-10T16:18:08.918Z,49.42
2022-11-10T16:20:55.523Z,54.15
2022-11-10T16:23:42.177Z,53.38
2022-11-10T16:26:29.805Z,58.00
2022-11-10T16:29:19.026Z,62.10
2022-11-10T16:32:05.781Z,58.25
2022-11-10T16:34:51.834Z,58.60
2022-11-10T16:37:38.222Z,54.95
2022-11-10T16:40:24.759Z,51.78
2022-11-10T16:43:17.871Z,46.55
2022-11-10T16:46:13.907Z,48.63
2022-11-10T16:49:01.589Z,50.85
2022-11-10T16:51:49.243Z,45.65
2022-11-10T16:54:35.967Z,53.60
2022-11-10T16:57:22.240Z,53.30
2022-11-10T17:00:09.371Z,45.28
2022-11-10T17:02:58.961Z,55.03
2022-11-10T17:05:46.102Z,53.58
2022-11-10T17:08:34.693Z,52.45
2022-11-10T17:11:21.600Z,48.30
2022-11-10T17:14:11.623Z,54.63
2022-11-10T17:16:57.952Z,51.22
2022-11-10T17:19:47.621Z,50.30
2022-11-10T17:22:36.422Z,55.05
2022-11-10T17:25:28.847Z,50.10
2022-11-10T17:28:17.549Z,49.75
2022-11-10T17:31:04.064Z,52.08
2022-11-10T17:33:50.579Z,52.63
2022-11-10T17:36:36.950Z,54.38
2022-11-10T17:39:23.288Z,53.30
2022-11-10T17:42:13.580Z,56.42
2022-11-10T17:44:59.637Z,52.25
2022-11-10T17:47:47.122Z,57.47
2022-11-10T17:50:34.966Z,60.63
2022-11-10T17:53:23.335Z,52.97
2022-11-10T17:56:09.915Z,54.67
2022-11-10T17:58:56.489Z,59.88
2022-11-10T18:01:42.652Z,63.63
2022-11-10T18:04:29.656Z,72.07
2022-11-10T18:07:18.272Z,61.17
2022-11-10T18:10:05.406Z,61.88
2022-11-10T18:12:51.357Z,64.22
2022-11-10T18:15:41.037Z,68.82
2022-11-10T18:18:27.727Z,60.38
2022-11-10T18:21:14.058Z,59.58
2022-11-10T18:23:59.968Z,64.85
2022-11-10T18:26:46.934Z,62.35
2022-11-10T18:29:33.197Z,56.00
2022-11-10T18:32:19.762Z,57.45
2022-11-10T18:35:06.354Z,53.97
2022-11-10T18:37:52.349Z,56.45
2022-11-10T18:40:38.336Z,61.45
2022-11-10T18:43:24.903Z,56.17
2022-11-10T18:46:11.304Z,57.92
2022-11-10T18:48:58.372Z,58.05
2022-11-10T18:51:44.786Z,58.58
2022-11-10T18:54:30.797Z,62.10
2022-11-10T18:57:17.395Z,62.00
2022-11-10T19:00:07.244Z,56.33
2022-11-10T19:02:53.551Z,55.20
2022-11-10T19:05:39.859Z,53.72
2022-11-10T19:08:27.687Z,57.10
2022-11-10T19:11:16.402Z,59.28
2022-11-10T19:14:02.798Z,50.28
2022-11-10T19:16:49.487Z,52.55
2022-11-10T19:19:35.771Z,56.92
2022-11-10T19:22:22.307Z,55.38
2022-11-10T19:25:19.344Z,51.33
2022-11-10T19:28:05.299Z,49.03
2022-11-10T19:30:51.868Z,49.47
2022-11-10T19:33:40.591Z,54.60
2022-11-10T19:36:29.922Z,50.97
2022-11-10T19:39:16.351Z,51.67
2022-11-10T19:42:03.439Z,55.40
2022-11-10T19:44:49.408Z,57.10
2022-11-10T19:47:36.039Z,46.25
2022-11-10T19:50:22.220Z,55.65
2022-11-10T19:53:08.339Z,50.75
2022-11-10T19:56:01.693Z,49.83
2022-11-10T19:58:48.227Z,47.88
2022-11-10T20:01:34.431Z,50.67
2022-11-10T20:04:20.870Z,42.83
2022-11-10T20:07:25.841Z,46.63
2022-11-10T20:10:12.310Z,45.83
2022-11-10T20:12:58.813Z,46.60
2022-11-10T20:15:45.073Z,55.10
2022-11-10T20:18:31.208Z,45.65
2022-11-10T20:21:22.455Z,50.90
2022-11-10T20:24:08.791Z,41.95
2022-11-10T20:26:54.950Z,44.75
2022-11-10T20:29:44.719Z,45.42
2022-11-10T20:32:31.714Z,46.88
2022-11-10T20:35:17.780Z,40.83
2022-11-10T20:38:03.811Z,46.20
2022-11-10T20:40:49.976Z,45.05
2022-11-10T20:43:37.994Z,43.72
2022-11-10T20:49:30.587Z,50.40
2022-11-10T20:52:16.945Z,48.50
2022-11-10T20:55:05.445Z,50.75
2022-11-10T20:57:52.356Z,47.90
2022-11-10T21:00:43.630Z,40.10
2022-11-10T21:03:31.609Z,39.15
2022-11-10T21:06:18.005Z,44.60
2022-11-10T21:09:09.357Z,39.50
2022-11-10T21:12:14.564Z,42.17
2022-11-10T21:15:01.276Z,39.15
2022-11-10T21:17:47.970Z,40.67
2022-11-10T21:20:34.936Z,39.03
2022-11-10T21:23:22.025Z,38.30
2022-11-10T21:26:08.720Z,40.65
2022-11-10T21:28:54.713Z,44.05
2022-11-10T21:31:41.995Z,45.60
2022-11-10T21:34:28.766Z,45.03
2022-11-10T21:37:14.942Z,43.47
2022-11-10T21:40:01.596Z,44.25
2022-11-10T21:42:48.192Z,41.60
2022-11-10T21:45:34.551Z,43.08
2022-11-10T21:48:20.702Z,40.50
2022-11-10T21:51:09.187Z,41.40
2022-11-10T21:53:55.674Z,35.85
2022-11-10T21:56:42.053Z,39.95
2022-11-10T21:59:28.005Z,36.13
2022-11-10T22:02:15.146Z,36.33
2022-11-10T22:05:01.237Z,37.63
2022-11-10T22:07:47.589Z,36.65
2022-11-10T22:11:12.063Z,35.05
2022-11-10T22:14:16.867Z,34.90
2022-11-10T22:17:21.647Z,32.88
2022-11-10T22:20:08.208Z,38.47
2022-11-10T22:22:54.838Z,29.20
2022-11-10T22:25:41.451Z,33.20
2022-11-10T22:28:27.854Z,32.80
2022-11-10T22:31:14.640Z,34.00
2022-11-10T22:34:01.403Z,31.02
2022-11-10T22:36:52.611Z,29.83
2022-11-10T22:39:57.114Z,33.67
2022-11-10T22:43:03.135Z,30.15
2022-11-10T22:45:49.086Z,28.00
2022-11-10T22:48:35.391Z,32.35
2022-11-10T22:51:22.094Z,29.75
2022-11-10T22:54:13.473Z,27.40
2022-11-10T22:56:59.280Z,25.08
2022-11-10T22:59:45.192Z,35.60
2022-11-10T23:02:31.566Z,27.73
2022-11-10T23:05:17.318Z,31.83
2022-11-10T23:08:03.586Z,31.77
2022-11-10T23:10:49.851Z,29.02
2022-11-10T23:13:37.330Z,32.13
2022-11-10T23:16:26.445Z,32.13
2022-11-10T23:19:13.039Z,28.35
2022-11-10T23:21:59.092Z,29.88
2022-11-10T23:24:45.497Z,26.33
2022-11-10T23:27:34.673Z,24.27
2022-11-10T23:30:20.887Z,24.92
2022-11-10T23:33:06.968Z,25.30
2022-11-10T23:35:53.126Z,29.48
2022-11-10T23:38:39.414Z,27.42
2022-11-10T23:41:26.928Z,25.08
2022-11-10T23:44:12.988Z,26.27
2022-11-10T23:46:59.451Z,23.50
2022-11-10T23:49:46.067Z,23.35
2022-11-10T23:52:32.361Z,22.63
2022-11-10T23:55:18.808Z,20.80
2022-11-10T23:58:05.612Z,23.40
